createdAt,value
2023-04-09T00:01:27.427Z,100907.94
2023-04-09T00:03:54.659Z,100906.19
2023-04-09T00:06:21.827Z,100910.28
2023-04-09T00:08:48.998Z,100890.81
2023-04-09T00:11:16.130Z,100906.44
2023-04-09T00:13:43.213Z,100891.16
2023-04-09T00:16:10.452Z,100913.44
2023-04-09T00:18:37.560Z,100918.09
2023-04-09T00:21:04.917Z,100912.25
2023-04-09T00:23:31.988Z,100916.78
2023-04-09T00:25:59.124Z,100907.44
2023-04-09T00:28:26.561Z,100912.22
2023-04-09T00:30:53.638Z,100918.69
2023-04-09T00:33:20.875Z,100915.34
2023-04-09T00:35:48.000Z,100913.44
2023-04-09T00:38:15.597Z,100920.16
2023-04-09T00:40:42.784Z,100917.97
2023-04-09T00:43:10.089Z,100917.97
2023-04-09T00:45:37.897Z,100904.25
2023-04-09T00:48:05.539Z,100916.56
2023-04-09T00:50:32.793Z,100912.94
2023-04-09T00:53:00.615Z,100898.84
2023-04-09T00:55:29.214Z,100908.38
2023-04-09T00:57:56.305Z,100912.91
2023-04-09T01:00:24.118Z,100900.59
2023-04-09T01:02:54.353Z,100913.13
2023-04-09T01:05:21.838Z,100905.81
2023-04-09T01:08:01.833Z,100904.00
2023-04-09T01:10:38.683Z,100904.00
2023-04-09T01:13:19.980Z,100903.44
2023-04-09T01:15:53.006Z,100908.09
2023-04-09T01:18:34.515Z,100904.75
2023-04-09T01:21:07.035Z,100899.31
2023-04-09T01:23:52.179Z,100909.56
2023-04-09T01:26:53.815Z,100914.59
2023-04-09T01:29:26.152Z,100913.53
2023-04-09T01:31:54.976Z,100906.59
2023-04-09T01:34:22.885Z,100906.31
2023-04-09T01:36:54.466Z,100907.16
2023-04-09T01:39:22.315Z,100899.56
2023-04-09T01:41:51.375Z,100916.28
2023-04-09T01:44:20.285Z,100921.78
2023-04-09T01:46:48.385Z,100922.72
2023-04-09T01:49:17.242Z,100918.44
2023-04-09T01:51:44.507Z,100913.44
2023-04-09T01:54:11.850Z,100917.97
2023-04-09T01:56:43.680Z,100918.94
2023-04-09T01:59:11.257Z,100917.47
2023-04-09T02:01:46.251Z,100914.75
2023-04-09T02:04:43.938Z,100920.94
2023-04-09T02:07:15.526Z,100916.28
2023-04-09T02:09:44.783Z,100913.44
2023-04-09T02:12:14.756Z,100922.00
2023-04-09T02:14:46.284Z,100914.38
2023-04-09T02:17:13.523Z,100915.09
2023-04-09T02:19:46.358Z,100921.78
2023-04-09T02:22:15.712Z,100915.09
2023-04-09T02:24:43.829Z,100918.94
2023-04-09T02:27:11.114Z,100914.16
2023-04-09T02:29:41.815Z,100907.22
2023-04-09T02:32:09.256Z,100915.56
2023-04-09T02:34:36.399Z,100911.03
2023-04-09T02:37:03.514Z,100910.09
2023-04-09T02:39:30.680Z,100909.38
2023-04-09T02:41:58.157Z,100912.00
2023-04-09T02:44:27.650Z,100908.41
2023-04-09T02:46:56.069Z,100909.13
2023-04-09T02:49:23.249Z,100912.00
2023-04-09T02:51:50.364Z,100916.31
2023-04-09T02:54:17.479Z,100912.84
2023-04-09T02:56:44.598Z,100906.06
2023-04-09T02:59:11.734Z,100915.84
2023-04-09T03:01:38.992Z,100912.22
2023-04-09T03:04:06.313Z,100914.63
2023-04-09T03:06:33.557Z,100912.59
2023-04-09T03:09:00.831Z,100903.38
2023-04-09T03:11:27.954Z,100916.91
2023-04-09T03:13:55.017Z,100914.38
2023-04-09T03:16:25.100Z,100916.28
2023-04-09T03:18:52.476Z,100910.53
2023-04-09T03:21:19.866Z,100924.16
2023-04-09T03:23:49.884Z,100928.72
2023-04-09T03:26:17.045Z,100919.75
2023-04-09T03:28:48.481Z,100919.88
2023-04-09T03:31:16.989Z,100924.28
2023-04-09T03:33:45.522Z,100909.56
2023-04-09T03:36:13.691Z,100918.50
2023-04-09T03:38:54.528Z,100918.38
2023-04-09T03:41:47.761Z,100898.31
2023-04-09T03:44:17.050Z,100906.44
2023-04-09T03:47:13.367Z,100918.47
2023-04-09T03:49:40.875Z,100911.66
2023-04-09T03:52:17.099Z,100920.16
2023-04-09T03:54:47.815Z,100898.41
2023-04-09T03:57:19.574Z,100918.81
2023-04-09T03:59:50.006Z,100922.16
2023-04-09T04:02:20.623Z,100923.84
2023-04-09T04:04:57.132Z,100925.50
2023-04-09T04:07:29.653Z,100923.59
2023-04-09T04:10:04.853Z,100910.78
2023-04-09T04:12:32.936Z,100921.91
2023-04-09T04:15:01.281Z,100927.19
2023-04-09T04:17:50.783Z,100919.97
2023-04-09T04:20:41.409Z,100925.25
2023-04-09T04:23:12.712Z,100910.16
2023-04-09T04:25:48.921Z,100913.38
2023-04-09T04:28:24.143Z,100916.09
2023-04-09T04:30:51.397Z,100908.53
2023-04-09T04:33:19.247Z,100900.44
2023-04-09T04:36:06.946Z,100901.78
2023-04-09T04:38:41.300Z,100900.41
2023-04-09T04:41:14.256Z,100905.06
2023-04-09T04:43:47.403Z,100895.88
2023-04-09T04:46:20.942Z,100903.81
2023-04-09T04:48:48.756Z,100896.84
2023-04-09T04:51:16.506Z,100899.31
2023-04-09T04:53:55.726Z,100900.72
2023-04-09T04:56:23.006Z,100901.16
2023-04-09T04:59:01.427Z,100907.28
2023-04-09T05:01:34.708Z,100888.28
2023-04-09T05:04:04.314Z,100902.22
2023-04-09T05:06:34.002Z,100897.53
2023-04-09T05:09:06.034Z,100893.38
2023-04-09T05:11:41.690Z,100897.44
2023-04-09T05:14:14.769Z,100899.78
2023-04-09T05:16:42.301Z,100886.56
2023-04-09T05:19:10.294Z,100901.41
2023-04-09T05:21:38.272Z,100909.88
2023-04-09T05:24:06.470Z,100905.03
2023-04-09T05:26:34.919Z,100899.19
2023-04-09T05:29:02.962Z,100906.44
2023-04-09T05:31:30.193Z,100910.31
2023-04-09T05:34:05.455Z,100900.88
2023-04-09T05:36:37.874Z,100903.69
2023-04-09T05:39:05.290Z,100904.78
2023-04-09T05:41:33.718Z,100901.91
2023-04-09T05:44:16.554Z,100913.16
2023-04-09T05:46:44.224Z,100915.94
2023-04-09T05:49:14.232Z,100912.56
2023-04-09T05:51:43.534Z,100911.94
2023-04-09T05:54:11.803Z,100906.34
2023-04-09T05:56:39.061Z,100911.34
2023-04-09T05:59:06.650Z,100902.25
2023-04-09T06:01:33.757Z,100915.53
2023-04-09T06:04:01.235Z,100912.00
2023-04-09T06:06:30.782Z,100912.88
2023-04-09T06:08:58.100Z,100920.09
2023-04-09T06:11:26.074Z,100909.72
2023-04-09T06:13:53.401Z,100914.13
2023-04-09T06:16:21.279Z,100913.94
2023-04-09T06:18:50.932Z,100918.16
2023-04-09T06:21:18.037Z,100924.00
2023-04-09T06:23:45.217Z,100914.50
2023-04-09T06:26:12.318Z,100921.31
2023-04-09T06:28:39.516Z,100922.78
2023-04-09T06:31:07.824Z,100933.94
2023-04-09T06:33:34.909Z,100920.00
2023-04-09T06:36:02.029Z,100920.03
2023-04-09T06:38:29.193Z,100923.22
2023-04-09T06:40:57.614Z,100924.78
2023-04-09T06:43:24.712Z,100921.03
2023-04-09T06:45:53.057Z,100921.03
2023-04-09T06:48:20.214Z,100923.75
2023-04-09T06:50:47.412Z,100913.97
2023-04-09T06:53:15.545Z,100913.09
2023-04-09T06:55:43.287Z,100910.25
2023-04-09T06:58:10.518Z,100907.22
2023-04-09T07:00:37.650Z,100912.78
2023-04-09T07:03:05.733Z,100918.19
2023-04-09T07:05:33.346Z,100893.00
2023-04-09T07:08:00.499Z,100919.03
2023-04-09T07:10:27.619Z,100924.03
2023-04-09T07:12:54.746Z,100915.34
2023-04-09T07:15:21.853Z,100924.19
2023-04-09T07:17:49.052Z,100927.25
2023-04-09T07:20:16.410Z,100923.94
2023-04-09T07:22:43.492Z,100927.25
2023-04-09T07:25:10.861Z,100926.50
2023-04-09T07:27:38.256Z,100922.25
2023-04-09T07:30:05.999Z,100924.53
2023-04-09T07:32:33.107Z,100925.84
2023-04-09T07:35:00.479Z,100925.00
2023-04-09T07:37:27.729Z,100927.75
2023-04-09T07:39:54.926Z,100932.84
2023-04-09T07:42:22.081Z,100937.81
2023-04-09T07:44:49.812Z,100926.41
2023-04-09T07:47:16.951Z,100931.78
2023-04-09T07:49:44.100Z,100927.69
2023-04-09T07:52:11.668Z,100930.59
2023-04-09T07:54:38.798Z,100926.31
2023-04-09T07:57:06.089Z,100924.88
2023-04-09T07:59:34.613Z,100925.34
2023-04-09T08:02:01.810Z,100931.50
2023-04-09T08:04:29.468Z,100933.25
2023-04-09T08:06:56.705Z,100928.66
2023-04-09T08:09:23.829Z,100922.50
2023-04-09T08:11:51.637Z,100932.47
2023-04-09T08:14:18.898Z,100906.56
2023-04-09T08:16:47.936Z,100922.38
2023-04-09T08:19:17.685Z,100922.38
2023-04-09T08:21:44.941Z,100915.38
2023-04-09T08:24:12.317Z,100919.88
2023-04-09T08:26:40.404Z,100912.09
2023-04-09T08:29:27.094Z,100913.03
2023-04-09T08:31:54.273Z,100903.75
2023-04-09T08:34:22.265Z,100906.56
2023-04-09T08:36:50.020Z,100914.50
2023-04-09T08:39:21.295Z,100911.34
2023-04-09T08:41:49.403Z,100912.88
2023-04-09T08:44:16.862Z,100906.41
2023-04-09T08:46:44.828Z,100903.75
2023-04-09T08:49:13.088Z,100893.81
2023-04-09T08:51:40.505Z,100892.78
2023-04-09T08:54:07.843Z,100894.16
2023-04-09T08:56:34.989Z,100889.47
2023-04-09T08:59:02.126Z,100896.47
2023-04-09T09:01:31.635Z,100893.09
2023-04-09T09:04:04.288Z,100897.13
2023-04-09T09:06:40.014Z,100875.81
2023-04-09T09:09:15.147Z,100889.06
2023-04-09T09:11:52.494Z,100899.16
2023-04-09T09:14:20.321Z,100895.97
2023-04-09T09:16:56.760Z,100895.69
2023-04-09T09:19:27.026Z,100893.34
2023-04-09T09:22:05.114Z,100877.88
2023-04-09T09:24:33.384Z,100881.13
2023-04-09T09:27:01.545Z,100880.63
2023-04-09T09:29:29.023Z,100877.66
2023-04-09T09:31:57.008Z,100883.31
2023-04-09T09:34:25.703Z,100879.59
2023-04-09T09:36:52.969Z,100870.50
2023-04-09T09:39:22.149Z,100862.97
2023-04-09T09:42:07.861Z,100876.44
2023-04-09T09:44:35.360Z,100878.28
2023-04-09T09:47:04.812Z,100879.19
2023-04-09T09:49:31.963Z,100871.56
2023-04-09T09:52:03.563Z,100877.88
2023-04-09T09:54:44.577Z,100858.06
2023-04-09T09:57:14.913Z,100863.03
2023-04-09T09:59:48.035Z,100871.00
2023-04-09T10:02:27.119Z,100862.56
2023-04-09T10:04:55.055Z,100864.34
2023-04-09T10:07:22.792Z,100850.88
2023-04-09T10:09:53.144Z,100854.13
2023-04-09T10:12:25.363Z,100856.94
2023-04-09T10:15:04.385Z,100862.47
2023-04-09T10:17:32.524Z,100858.75
2023-04-09T10:20:14.532Z,100852.00
2023-04-09T10:22:45.936Z,100856.81
2023-04-09T10:25:13.316Z,100846.34
2023-04-09T10:27:40.457Z,100843.53
2023-04-09T10:30:10.528Z,100847.69
2023-04-09T10:32:37.907Z,100846.25
2023-04-09T10:35:05.560Z,100855.72
2023-04-09T10:37:35.751Z,100845.16
2023-04-09T10:40:04.780Z,100856.00
2023-04-09T10:42:43.380Z,100844.44
2023-04-09T10:45:12.189Z,100841.81
2023-04-09T10:47:41.630Z,100840.72
2023-04-09T10:50:17.712Z,100841.19
2023-04-09T10:52:45.507Z,100842.06
2023-04-09T10:55:37.229Z,100854.41
2023-04-09T10:58:12.331Z,100841.72
2023-04-09T11:00:44.659Z,100847.16
2023-04-09T11:03:12.220Z,100843.28
2023-04-09T11:05:40.743Z,100833.81
2023-04-09T11:08:12.854Z,100841.28
2023-04-09T11:10:50.522Z,100833.59
2023-04-09T11:13:20.836Z,100828.03
2023-04-09T11:15:48.148Z,100845.19
2023-04-09T11:18:26.189Z,100834.03
2023-04-09T11:20:57.388Z,100842.72
2023-04-09T11:23:25.169Z,100833.94
2023-04-09T11:25:53.118Z,100831.69
2023-04-09T11:28:21.357Z,100828.63
2023-04-09T11:30:51.426Z,100821.28
2023-04-09T11:33:19.948Z,100830.13
2023-04-09T11:35:48.506Z,100809.06
2023-04-09T11:38:15.901Z,100826.72
2023-04-09T11:40:48.750Z,100819.97
2023-04-09T11:43:17.874Z,100823.78
2023-04-09T11:45:48.587Z,100818.03
2023-04-09T11:48:21.814Z,100826.50
2023-04-09T11:50:49.846Z,100809.47
2023-04-09T11:53:22.040Z,100814.91
2023-04-09T11:55:53.570Z,100816.75
2023-04-09T11:58:25.737Z,100805.97
2023-04-09T12:00:58.425Z,100811.09
2023-04-09T12:03:35.068Z,100807.97
2023-04-09T12:06:03.781Z,100806.84
2023-04-09T12:08:31.932Z,100811.69
2023-04-09T12:11:12.193Z,100801.84
2023-04-09T12:13:43.463Z,100803.38
2023-04-09T12:16:14.554Z,100794.09
2023-04-09T12:18:42.057Z,100795.22
2023-04-09T12:21:09.382Z,100791.88
2023-04-09T12:23:36.721Z,100794.69
2023-04-09T12:26:04.092Z,100803.22
2023-04-09T12:28:31.374Z,100804.78
2023-04-09T12:30:59.642Z,100785.97
2023-04-09T12:33:27.302Z,100790.84
2023-04-09T12:35:54.575Z,100797.19
2023-04-09T12:38:21.753Z,100796.44
2023-04-09T12:40:48.912Z,100791.28
2023-04-09T12:43:16.036Z,100776.69
2023-04-09T12:45:43.318Z,100792.31
2023-04-09T12:48:30.430Z,100796.91
2023-04-09T12:51:16.009Z,100792.16
2023-04-09T12:54:04.273Z,100798.66
2023-04-09T12:56:31.503Z,100797.34
2023-04-09T12:59:18.515Z,100793.31
2023-04-09T13:02:05.779Z,100785.38
2023-04-09T13:04:35.982Z,100784.84
2023-04-09T13:07:03.231Z,100790.50
2023-04-09T13:09:50.568Z,100789.50
2023-04-09T13:12:37.758Z,100787.78
2023-04-09T13:15:24.857Z,100790.13
2023-04-09T13:18:13.782Z,100768.72
2023-04-09T13:20:41.196Z,100791.56
2023-04-09T13:23:08.327Z,100788.31
2023-04-09T13:25:41.307Z,100794.66
2023-04-09T13:28:26.166Z,100791.66
2023-04-09T13:31:13.299Z,100770.88
2023-04-09T13:33:43.429Z,100784.16
2023-04-09T13:36:16.937Z,100783.63
2023-04-09T13:38:44.326Z,100792.06
2023-04-09T13:41:36.402Z,100788.84
2023-04-09T13:44:22.739Z,100789.44
2023-04-09T13:47:10.639Z,100765.88
2023-04-09T13:49:56.359Z,100781.66
2023-04-09T13:52:42.161Z,100784.44
2023-04-09T13:55:27.695Z,100782.22
2023-04-09T13:58:13.526Z,100781.06
2023-04-09T14:00:40.648Z,100775.09
2023-04-09T14:03:07.965Z,100779.22
2023-04-09T14:05:35.429Z,100774.41
2023-04-09T14:08:02.546Z,100775.19
2023-04-09T14:10:30.738Z,100774.69
2023-04-09T14:12:58.337Z,100771.00
2023-04-09T14:15:25.464Z,100761.56
2023-04-09T14:17:52.584Z,100772.19
2023-04-09T14:20:21.278Z,100762.50
2023-04-09T14:22:49.601Z,100768.34
2023-04-09T14:25:17.276Z,100756.16
2023-04-09T14:27:44.415Z,100760.66
2023-04-09T14:30:13.370Z,100741.22
2023-04-09T14:32:40.602Z,100763.75
2023-04-09T14:35:08.053Z,100751.84
2023-04-09T14:37:35.639Z,100757.22
2023-04-09T14:40:02.965Z,100760.19
2023-04-09T14:42:30.337Z,100754.84
2023-04-09T14:44:57.438Z,100754.19
2023-04-09T14:47:24.550Z,100758.41
2023-04-09T14:49:51.733Z,100761.91
2023-04-09T14:52:18.905Z,100760.06
2023-04-09T14:54:46.470Z,100744.94
2023-04-09T14:57:13.693Z,100762.69
2023-04-09T14:59:40.738Z,100765.16
2023-04-09T15:02:08.010Z,100768.16
2023-04-09T15:04:35.560Z,100761.81
2023-04-09T15:07:02.761Z,100759.69
2023-04-09T15:09:29.896Z,100766.13
2023-04-09T15:11:57.191Z,100770.19
2023-04-09T15:14:24.292Z,100760.22
2023-04-09T15:16:51.841Z,100768.88
2023-04-09T15:19:19.042Z,100760.59
2023-04-09T15:21:46.430Z,100763.22
2023-04-09T15:24:13.597Z,100763.06
2023-04-09T15:26:40.971Z,100768.22
2023-04-09T15:29:08.602Z,100762.25
2023-04-09T15:31:36.430Z,100758.91
2023-04-09T15:34:03.736Z,100763.06
2023-04-09T15:36:31.602Z,100735.34
2023-04-09T15:38:58.849Z,100761.56
2023-04-09T15:41:26.983Z,100761.56
2023-04-09T15:43:54.266Z,100750.94
2023-04-09T15:46:21.451Z,100756.94
2023-04-09T15:48:48.572Z,100754.59
2023-04-09T15:51:16.841Z,100767.22
2023-04-09T15:53:44.090Z,100769.69
2023-04-09T15:56:15.448Z,100767.22
2023-04-09T15:58:43.455Z,100772.84
2023-04-09T16:01:11.186Z,100780.25
2023-04-09T16:03:41.902Z,100783.09
2023-04-09T16:06:09.934Z,100792.25
2023-04-09T16:08:37.525Z,100806.00
2023-04-09T16:11:05.806Z,100799.69
2023-04-09T16:13:33.706Z,100807.31
2023-04-09T16:16:01.313Z,100828.19
2023-04-09T16:18:28.511Z,100796.53
2023-04-09T16:20:57.541Z,100812.41
2023-04-09T16:23:29.066Z,100818.59
2023-04-09T16:25:57.549Z,100816.59
2023-04-09T16:28:25.727Z,100814.41
2023-04-09T16:30:53.110Z,100804.38
2023-04-09T16:33:20.316Z,100803.09
2023-04-09T16:35:47.425Z,100800.06
2023-04-09T16:38:14.625Z,100790.28
2023-04-09T16:40:41.805Z,100793.00
2023-04-09T16:43:08.890Z,100776.47
2023-04-09T16:45:36.194Z,100788.56
2023-04-09T16:48:03.692Z,100791.00
2023-04-09T16:50:30.969Z,100784.78
2023-04-09T16:52:58.179Z,100775.84
2023-04-09T16:55:25.471Z,100775.78
2023-04-09T16:57:52.888Z,100775.78
2023-04-09T17:00:20.939Z,100779.41
2023-04-09T17:02:48.291Z,100785.00
2023-04-09T17:05:16.338Z,100775.41
2023-04-09T17:07:43.458Z,100778.50
2023-04-09T17:10:10.973Z,100774.66
2023-04-09T17:12:39.364Z,100776.63
2023-04-09T17:15:07.367Z,100777.47
2023-04-09T17:17:35.121Z,100783.59
2023-04-09T17:20:02.222Z,100785.53
2023-04-09T17:22:30.411Z,100789.47
2023-04-09T17:24:57.557Z,100779.19
2023-04-09T17:27:24.633Z,100788.69
2023-04-09T17:29:51.860Z,100785.78
2023-04-09T17:32:19.106Z,100774.44
2023-04-09T17:34:52.437Z,100790.47
2023-04-09T17:37:19.661Z,100792.56
2023-04-09T17:39:46.752Z,100786.09
2023-04-09T17:42:14.277Z,100782.66
2023-04-09T17:44:43.888Z,100789.28
2023-04-09T17:47:12.463Z,100786.78
2023-04-09T17:49:40.009Z,100782.66
2023-04-09T17:52:07.142Z,100778.63
2023-04-09T17:54:35.106Z,100781.28
2023-04-09T17:57:04.244Z,100781.88
2023-04-09T17:59:32.473Z,100787.47
2023-04-09T18:01:59.740Z,100784.41
2023-04-09T18:04:27.348Z,100785.28
2023-04-09T18:06:55.591Z,100788.63
2023-04-09T18:09:22.759Z,100789.41
2023-04-09T18:11:54.897Z,100784.13
2023-04-09T18:14:23.259Z,100787.47
2023-04-09T18:16:50.449Z,100786.06
2023-04-09T18:19:17.627Z,100783.38
2023-04-09T18:21:44.722Z,100787.91
2023-04-09T18:24:11.837Z,100796.66
2023-04-09T18:26:39.002Z,100782.34
2023-04-09T18:29:06.133Z,100791.56
2023-04-09T18:31:33.342Z,100785.13
2023-04-09T18:34:00.829Z,100786.53
2023-04-09T18:36:28.452Z,100780.31
2023-04-09T18:38:57.967Z,100793.47
2023-04-09T18:41:26.149Z,100774.28
2023-04-09T18:43:54.120Z,100791.25
2023-04-09T18:46:22.930Z,100795.19
2023-04-09T18:48:50.013Z,100794.34
2023-04-09T18:51:18.916Z,100794.47
2023-04-09T18:53:52.971Z,100796.75
2023-04-09T18:56:21.170Z,100790.50
2023-04-09T18:58:48.787Z,100793.81
2023-04-09T19:01:17.537Z,100800.50
2023-04-09T19:03:45.605Z,100792.75
2023-04-09T19:06:14.791Z,100796.94
2023-04-09T19:08:42.080Z,100791.69
2023-04-09T19:11:09.304Z,100784.28
2023-04-09T19:13:37.780Z,100787.59
2023-04-09T19:16:07.140Z,100796.75
2023-04-09T19:18:34.957Z,100791.47
2023-04-09T19:21:02.141Z,100789.13
2023-04-09T19:23:30.111Z,100787.72
2023-04-09T19:25:57.605Z,100783.41
2023-04-09T19:28:24.776Z,100791.50
2023-04-09T19:30:52.603Z,100781.38
2023-04-09T19:33:27.155Z,100797.78
2023-04-09T19:35:55.677Z,100789.44
2023-04-09T19:38:23.363Z,100792.53
2023-04-09T19:40:50.457Z,100795.44
2023-04-09T19:43:17.580Z,100800.47
2023-04-09T19:45:44.735Z,100796.53
2023-04-09T19:48:12.827Z,100797.25
2023-04-09T19:50:46.276Z,100786.28
2023-04-09T19:53:13.733Z,100801.81
2023-04-09T19:55:41.178Z,100807.81
2023-04-09T19:58:08.259Z,100804.75
2023-04-09T20:00:35.401Z,100799.47
2023-04-09T20:03:03.218Z,100801.84
2023-04-09T20:05:30.519Z,100791.97
2023-04-09T20:07:57.616Z,100795.31
2023-04-09T20:10:24.776Z,100784.06
2023-04-09T20:12:52.049Z,100795.31
2023-04-09T20:15:22.717Z,100802.53
2023-04-09T20:17:51.054Z,100801.00
2023-04-09T20:20:19.972Z,100799.50
2023-04-09T20:22:56.252Z,100783.09
2023-04-09T20:25:24.929Z,100802.53
2023-04-09T20:27:56.014Z,100777.81
2023-04-09T20:30:23.202Z,100807.56
2023-04-09T20:32:50.512Z,100800.34
2023-04-09T20:35:17.728Z,100805.19
2023-04-09T20:37:44.962Z,100798.53
2023-04-09T20:40:12.535Z,100806.44
2023-04-09T20:42:41.364Z,100802.84
2023-04-09T20:45:09.349Z,100799.75
2023-04-09T20:47:36.544Z,100797.13
2023-04-09T20:50:03.976Z,100802.41
2023-04-09T20:52:31.622Z,100812.25
2023-04-09T20:54:58.767Z,100806.31
2023-04-09T20:57:25.934Z,100810.03
2023-04-09T20:59:53.944Z,100801.69
2023-04-09T21:02:21.345Z,100790.03
2023-04-09T21:04:48.496Z,100796.13
2023-04-09T21:07:15.769Z,100803.91
2023-04-09T21:09:42.866Z,100804.75
2023-04-09T21:12:10.009Z,100807.50
2023-04-09T21:14:37.163Z,100810.03
2023-04-09T21:17:04.350Z,100808.47
2023-04-09T21:19:31.652Z,100804.72
2023-04-09T21:21:58.752Z,100811.41
2023-04-09T21:24:26.999Z,100802.06
2023-04-09T21:26:54.102Z,100797.06
2023-04-09T21:29:21.389Z,100807.34
2023-04-09T21:31:49.547Z,100794.41
2023-04-09T21:34:16.925Z,100811.41
2023-04-09T21:36:45.483Z,100799.44
2023-04-09T21:39:13.133Z,100801.63
2023-04-09T21:41:40.287Z,100806.34
2023-04-09T21:44:10.204Z,100808.56
2023-04-09T21:46:37.582Z,100801.38
2023-04-09T21:49:04.870Z,100806.94
2023-04-09T21:51:32.375Z,100807.75
2023-04-09T21:54:09.234Z,100808.47
2023-04-09T21:56:37.118Z,100809.44
2023-04-09T21:59:05.655Z,100814.72
2023-04-09T22:01:33.515Z,100808.06
2023-04-09T22:04:04.037Z,100812.06
2023-04-09T22:06:32.345Z,100805.56
2023-04-09T22:08:59.832Z,100807.50
2023-04-09T22:11:29.519Z,100801.25
2023-04-09T22:13:57.599Z,100803.63
2023-04-09T22:16:26.059Z,100803.34
2023-04-09T22:18:54.804Z,100800.44
2023-04-09T22:21:22.553Z,100808.34
2023-04-09T22:23:49.682Z,100807.38
2023-04-09T22:26:16.990Z,100805.00
2023-04-09T22:28:44.335Z,100810.00
2023-04-09T22:31:11.494Z,100810.84
2023-04-09T22:33:38.599Z,100804.59
2023-04-09T22:36:06.574Z,100803.63
2023-04-09T22:38:34.580Z,100775.25
2023-04-09T22:41:01.718Z,100803.63
2023-04-09T22:43:28.875Z,100800.03
2023-04-09T22:45:57.394Z,100793.34
2023-04-09T22:48:26.014Z,100808.63
2023-04-09T22:50:53.088Z,100805.00
2023-04-09T22:53:26.859Z,100792.53
2023-04-09T22:55:54.965Z,100802.53
2023-04-09T22:58:22.196Z,100799.75
2023-04-09T23:00:49.740Z,100773.66
2023-04-09T23:03:17.556Z,100788.66
2023-04-09T23:05:47.718Z,100799.75
2023-04-09T23:08:15.140Z,100794.59
2023-04-09T23:10:42.318Z,100794.91
2023-04-09T23:13:15.404Z,100795.56
2023-04-09T23:15:42.734Z,100790.84
2023-04-09T23:18:09.961Z,100797.53
2023-04-09T23:20:37.190Z,100782.78
2023-04-09T23:23:04.237Z,100794.47
2023-04-09T23:25:32.297Z,100768.75
2023-04-09T23:28:00.466Z,100796.41
2023-04-09T23:30:27.739Z,100800.03
2023-04-09T23:32:57.038Z,100800.44
2023-04-09T23:35:24.658Z,100792.22
2023-04-09T23:37:52.486Z,100792.22
2023-04-09T23:40:19.656Z,100788.34
2023-04-09T23:42:48.157Z,100789.47
2023-04-09T23:45:15.496Z,100800.84
2023-04-09T23:47:42.728Z,100795.00
2023-04-09T23:50:10.284Z,100795.84
2023-04-09T23:52:38.635Z,100785.81
2023-04-09T23:55:09.706Z,100789.16
2023-04-09T23:57:36.892Z,100796.34
